sensor_id;sensor_type;location;lat;lon;timestamp;pressure;altitude;pressure_sealevel;temperature;humidity
49459;BME280;35354;51.296;16.924;2023-02-04T00:00:15;99057.44;;;3.57;100.00
49459;BME280;35354;51.296;16.924;2023-02-04T00:02:41;99042.63;;;3.34;100.00
49459;BME280;35354;51.296;16.924;2023-02-04T00:05:07;99056.91;;;3.46;100.00
49459;BME280;35354;51.296;16.924;2023-02-04T00:07:33;99058.66;;;3.44;100.00
49459;BME280;35354;51.296;16.924;2023-02-04T00:09:58;99072.38;;;3.44;100.00
49459;BME280;35354;51.296;16.924;2023-02-04T00:12:24;99095.97;;;3.60;100.00
49459;BME280;35354;51.296;16.924;2023-02-04T00:14:49;99087.69;;;3.49;100.00
49459;BME280;35354;51.296;16.924;2023-02-04T00:17:14;99100.94;;;3.66;100.00
49459;BME280;35354;51.296;16.924;2023-02-04T00:19:40;99083.78;;;3.67;100.00
49459;BME280;35354;51.296;16.924;2023-02-04T00:22:06;99081.81;;;3.44;100.00
49459;BME280;35354;51.296;16.924;2023-02-04T00:24:33;99099.69;;;3.50;100.00
49459;BME280;35354;51.296;16.924;2023-02-04T00:26:59;99081.91;;;3.41;100.00
49459;BME280;35354;51.296;16.924;2023-02-04T00:29:24;99122.94;;;3.47;100.00
49459;BME280;35354;51.296;16.924;2023-02-04T00:31:49;99112.47;;;3.53;100.00
49459;BME280;35354;51.296;16.924;2023-02-04T00:34:15;99098.31;;;3.37;100.00
49459;BME280;35354;51.296;16.924;2023-02-04T00:36:42;99127.91;;;3.55;100.00
49459;BME280;35354;51.296;16.924;2023-02-04T00:39:07;99111.31;;;3.32;100.00
49459;BME280;35354;51.296;16.924;2023-02-04T00:41:32;99130.59;;;3.50;100.00
49459;BME280;35354;51.296;16.924;2023-02-04T00:43:58;99116.22;;;3.41;100.00
49459;BME280;35354;51.296;16.924;2023-02-04T00:46:23;99139.09;;;3.52;100.00
49459;BME280;35354;51.296;16.924;2023-02-04T00:48:48;99127.81;;;3.25;100.00
49459;BME280;35354;51.296;16.924;2023-02-04T00:51:14;99146.56;;;3.29;100.00
49459;BME280;35354;51.296;16.924;2023-02-04T00:53:39;99161.91;;;3.33;100.00
49459;BME280;35354;51.296;16.924;2023-02-04T00:56:04;99173.00;;;3.35;100.00
49459;BME280;35354;51.296;16.924;2023-02-04T00:58:30;99183.34;;;3.34;100.00
49459;BME280;35354;51.296;16.924;2023-02-04T01:00:55;99185.88;;;3.35;100.00
49459;BME280;35354;51.296;16.924;2023-02-04T01:03:20;99195.69;;;3.21;100.00
49459;BME280;35354;51.296;16.924;2023-02-04T01:05:46;99201.31;;;2.99;100.00
49459;BME280;35354;51.296;16.924;2023-02-04T01:08:11;99200.78;;;2.85;100.00
49459;BME280;35354;51.296;16.924;2023-02-04T01:10:37;99210.22;;;2.85;100.00
49459;BME280;35354;51.296;16.924;2023-02-04T01:13:02;99226.66;;;2.79;100.00
49459;BME280;35354;51.296;16.924;2023-02-04T01:15:27;99212.41;;;2.63;100.00
49459;BME280;35354;51.296;16.924;2023-02-04T01:17:52;99239.41;;;2.82;100.00
49459;BME280;35354;51.296;16.924;2023-02-04T01:20:18;99280.91;;;2.67;100.00
49459;BME280;35354;51.296;16.924;2023-02-04T01:22:43;99290.25;;;2.26;100.00
49459;BME280;35354;51.296;16.924;2023-02-04T01:25:09;99323.53;;;1.84;100.00
49459;BME280;35354;51.296;16.924;2023-02-04T01:27:34;99342.44;;;1.80;100.00
49459;BME280;35354;51.296;16.924;2023-02-04T01:29:59;99370.22;;;1.54;100.00
49459;BME280;35354;51.296;16.924;2023-02-04T01:32:25;99362.03;;;1.29;100.00
49459;BME280;35354;51.296;16.924;2023-02-04T01:34:50;99358.59;;;1.28;100.00
49459;BME280;35354;51.296;16.924;2023-02-04T01:37:15;99400.63;;;1.18;100.00
49459;BME280;35354;51.296;16.924;2023-02-04T01:39:41;99420.25;;;1.23;100.00
49459;BME280;35354;51.296;16.924;2023-02-04T01:42:07;99421.31;;;1.06;100.00
49459;BME280;35354;51.296;16.924;2023-02-04T01:44:32;99439.97;;;1.18;100.00
49459;BME280;35354;51.296;16.924;2023-02-04T01:46:58;99443.50;;;1.08;100.00
49459;BME280;35354;51.296;16.924;2023-02-04T01:49:23;99451.38;;;0.91;100.00
49459;BME280;35354;51.296;16.924;2023-02-04T01:51:49;99496.59;;;1.02;100.00
49459;BME280;35354;51.296;16.924;2023-02-04T01:54:15;99451.69;;;0.64;100.00
49459;BME280;35354;51.296;16.924;2023-02-04T01:56:44;99501.88;;;0.83;100.00
49459;BME280;35354;51.296;16.924;2023-02-04T01:59:12;99505.47;;;0.68;100.00
49459;BME280;35354;51.296;16.924;2023-02-04T02:01:44;99540.34;;;0.85;100.00
49459;BME280;35354;51.296;16.924;2023-02-04T02:04:11;99557.50;;;0.75;100.00
49459;BME280;35354;51.296;16.924;2023-02-04T02:06:38;99559.31;;;0.65;100.00
49459;BME280;35354;51.296;16.924;2023-02-04T02:09:06;99573.03;;;0.60;100.00
49459;BME280;35354;51.296;16.924;2023-02-04T02:11:31;99576.50;;;0.53;100.00
49459;BME280;35354;51.296;16.924;2023-02-04T02:13:57;99609.66;;;0.72;100.00
49459;BME280;35354;51.296;16.924;2023-02-04T02:16:23;99623.44;;;0.55;100.00
49459;BME280;35354;51.296;16.924;2023-02-04T02:18:48;99649.88;;;0.63;100.00
49459;BME280;35354;51.296;16.924;2023-02-04T02:21:15;99631.22;;;0.38;100.00
49459;BME280;35354;51.296;16.924;2023-02-04T02:23:50;99673.00;;;0.55;100.00
49459;BME280;35354;51.296;16.924;2023-02-04T02:26:17;99643.25;;;0.31;100.00
49459;BME280;35354;51.296;16.924;2023-02-04T02:28:45;99656.88;;;0.36;100.00
49459;BME280;35354;51.296;16.924;2023-02-04T02:31:13;99682.47;;;0.44;100.00
49459;BME280;35354;51.296;16.924;2023-02-04T02:33:38;99695.31;;;0.32;100.00
49459;BME280;35354;51.296;16.924;2023-02-04T02:36:04;99734.47;;;0.58;100.00
49459;BME280;35354;51.296;16.924;2023-02-04T02:38:30;99745.63;;;0.53;100.00
49459;BME280;35354;51.296;16.924;2023-02-04T02:40:56;99749.91;;;0.55;100.00
49459;BME280;35354;51.296;16.924;2023-02-04T02:43:24;99748.22;;;0.42;100.00
49459;BME280;35354;51.296;16.924;2023-02-04T02:45:51;99777.19;;;0.61;100.00
49459;BME280;35354;51.296;16.924;2023-02-04T02:48:17;99796.06;;;0.44;100.00
49459;BME280;35354;51.296;16.924;2023-02-04T02:50:43;99825.09;;;0.46;99.57
49459;BME280;35354;51.296;16.924;2023-02-04T02:53:13;99815.69;;;0.44;99.62
49459;BME280;35354;51.296;16.924;2023-02-04T02:55:39;99848.13;;;0.49;99.73
49459;BME280;35354;51.296;16.924;2023-02-04T02:58:11;99855.88;;;0.34;99.43
49459;BME280;35354;51.296;16.924;2023-02-04T03:00:38;99890.88;;;0.29;97.55
49459;BME280;35354;51.296;16.924;2023-02-04T03:03:06;99896.88;;;0.05;96.89
49459;BME280;35354;51.296;16.924;2023-02-04T03:05:37;99890.91;;;-0.08;96.34
49459;BME280;35354;51.296;16.924;2023-02-04T03:08:05;99899.44;;;-0.03;95.88
49459;BME280;35354;51.296;16.924;2023-02-04T03:10:31;99924.19;;;-0.06;95.81
49459;BME280;35354;51.296;16.924;2023-02-04T03:12:58;99953.22;;;0.11;95.22
49459;BME280;35354;51.296;16.924;2023-02-04T03:15:23;99976.25;;;0.08;95.28
49459;BME280;35354;51.296;16.924;2023-02-04T03:17:49;99958.31;;;-0.15;94.69
49459;BME280;35354;51.296;16.924;2023-02-04T03:20:20;100001.88;;;0.05;94.46
49459;BME280;35354;51.296;16.924;2023-02-04T03:22:47;99989.88;;;-0.19;94.39
49459;BME280;35354;51.296;16.924;2023-02-04T03:25:13;100022.31;;;-0.09;93.85
49459;BME280;35354;51.296;16.924;2023-02-04T03:27:38;100040.22;;;-0.09;94.06
49459;BME280;35354;51.296;16.924;2023-02-04T03:30:04;100017.16;;;-0.24;93.96
49459;BME280;35354;51.296;16.924;2023-02-04T03:32:29;100065.03;;;-0.03;93.45
49459;BME280;35354;51.296;16.924;2023-02-04T03:34:55;100073.53;;;-0.09;94.15
49459;BME280;35354;51.296;16.924;2023-02-04T03:37:20;100086.34;;;-0.06;93.04
49459;BME280;35354;51.296;16.924;2023-02-04T03:39:45;100092.31;;;-0.07;92.31
49459;BME280;35354;51.296;16.924;2023-02-04T03:42:10;100111.09;;;-0.08;93.00
49459;BME280;35354;51.296;16.924;2023-02-04T03:44:36;100096.56;;;-0.10;93.66
49459;BME280;35354;51.296;16.924;2023-02-04T03:47:01;100118.00;;;0.09;92.50
49459;BME280;35354;51.296;16.924;2023-02-04T03:49:26;100099.97;;;-0.10;92.66
49459;BME280;35354;51.296;16.924;2023-02-04T03:51:52;100136.75;;;0.00;92.63
49459;BME280;35354;51.296;16.924;2023-02-04T03:54:17;100149.53;;;0.03;93.27
49459;BME280;35354;51.296;16.924;2023-02-04T03:56:43;100146.09;;;-0.05;92.91
49459;BME280;35354;51.296;16.924;2023-02-04T03:59:08;100178.56;;;0.02;92.64
49459;BME280;35354;51.296;16.924;2023-02-04T04:01:33;100177.66;;;-0.05;93.63
49459;BME280;35354;51.296;16.924;2023-02-04T04:03:59;100206.72;;;0.02;93.59
49459;BME280;35354;51.296;16.924;2023-02-04T04:06:24;100181.91;;;-0.16;93.56
49459;BME280;35354;51.296;16.924;2023-02-04T04:08:49;100225.50;;;0.04;93.61
49459;BME280;35354;51.296;16.924;2023-02-04T04:11:15;100228.94;;;0.02;93.08
49459;BME280;35354;51.296;16.924;2023-02-04T04:13:40;100212.63;;;-0.14;92.90
49459;BME280;35354;51.296;16.924;2023-02-04T04:16:06;100217.72;;;-0.19;93.14
49459;BME280;35354;51.296;16.924;2023-02-04T04:18:32;100254.44;;;-0.17;93.40
49459;BME280;35354;51.296;16.924;2023-02-04T04:20:58;100250.97;;;-0.22;93.56
49459;BME280;35354;51.296;16.924;2023-02-04T04:23:24;100274.88;;;-0.18;93.47
49459;BME280;35354;51.296;16.924;2023-02-04T04:25:49;100281.63;;;-0.30;93.39
49459;BME280;35354;51.296;16.924;2023-02-04T04:28:15;100277.34;;;-0.31;93.98
49459;BME280;35354;51.296;16.924;2023-02-04T04:30:40;100296.22;;;-0.21;93.43
49459;BME280;35354;51.296;16.924;2023-02-04T04:33:06;100311.63;;;-0.09;94.07
49459;BME280;35354;51.296;16.924;2023-02-04T04:35:31;100294.47;;;-0.25;92.28
49459;BME280;35354;51.296;16.924;2023-02-04T04:37:56;100288.47;;;-0.26;92.96
49459;BME280;35354;51.296;16.924;2023-02-04T04:40:22;100313.22;;;-0.26;93.09
49459;BME280;35354;51.296;16.924;2023-02-04T04:42:47;100304.72;;;-0.23;93.15
49459;BME280;35354;51.296;16.924;2023-02-04T04:45:12;100328.63;;;-0.21;92.61
49459;BME280;35354;51.296;16.924;2023-02-04T04:47:38;100325.13;;;-0.33;93.70
49459;BME280;35354;51.296;16.924;2023-02-04T04:50:04;100352.47;;;-0.27;93.71
49459;BME280;35354;51.296;16.924;2023-02-04T04:52:29;100354.19;;;-0.29;93.17
49459;BME280;35354;51.296;16.924;2023-02-04T04:54:55;100378.13;;;-0.19;93.51
49459;BME280;35354;51.296;16.924;2023-02-04T04:57:20;100392.78;;;-0.03;94.16
49459;BME280;35354;51.296;16.924;2023-02-04T04:59:45;100371.19;;;-0.31;93.38
49459;BME280;35354;51.296;16.924;2023-02-04T05:02:11;100386.56;;;-0.31;92.83
49459;BME280;35354;51.296;16.924;2023-02-04T05:04:36;100368.53;;;-0.45;93.46
49459;BME280;35354;51.296;16.924;2023-02-04T05:07:01;100407.94;;;-0.29;93.43
49459;BME280;35354;51.296;16.924;2023-02-04T05:09:27;100444.72;;;-0.18;93.08
49459;BME280;35354;51.296;16.924;2023-02-04T05:11:52;100444.75;;;-0.16;92.96
49459;BME280;35354;51.296;16.924;2023-02-04T05:14:17;100461.81;;;-0.14;93.96
49459;BME280;35354;51.296;16.924;2023-02-04T05:16:43;100451.44;;;-0.26;93.80
49459;BME280;35354;51.296;16.924;2023-02-04T05:19:08;100451.44;;;-0.26;94.56
49459;BME280;35354;51.296;16.924;2023-02-04T05:21:33;100466.81;;;-0.29;94.02
49459;BME280;35354;51.296;16.924;2023-02-04T05:23:59;100484.03;;;-0.11;94.58
49459;BME280;35354;51.296;16.924;2023-02-04T05:26:24;100475.38;;;-0.22;94.39
49459;BME280;35354;51.296;16.924;2023-02-04T05:28:51;100488.28;;;-0.15;94.44
49459;BME280;35354;51.296;16.924;2023-02-04T05:31:16;100503.75;;;-0.03;94.72
49459;BME280;35354;51.296;16.924;2023-02-04T05:33:42;100502.06;;;-0.04;93.91
49459;BME280;35354;51.296;16.924;2023-02-04T05:36:07;100516.53;;;-0.06;93.53
49459;BME280;35354;51.296;16.924;2023-02-04T05:38:32;100496.72;;;-0.23;94.13
49459;BME280;35354;51.296;16.924;2023-02-04T05:40:57;100496.72;;;-0.23;94.07
49459;BME280;35354;51.296;16.924;2023-02-04T05:43:23;100538.63;;;-0.15;94.89
49459;BME280;35354;51.296;16.924;2023-02-04T05:45:48;100521.56;;;-0.13;95.32
49459;BME280;35354;51.296;16.924;2023-02-04T05:48:13;100516.19;;;-0.36;95.09
49459;BME280;35354;51.296;16.924;2023-02-04T05:50:39;100528.94;;;-0.39;94.99
49459;BME280;35354;51.296;16.924;2023-02-04T05:53:04;100557.34;;;-0.21;95.96
49459;BME280;35354;51.296;16.924;2023-02-04T05:55:29;100536.53;;;-0.48;95.37
49459;BME280;35354;51.296;16.924;2023-02-04T05:57:55;100569.69;;;-0.56;95.67
49459;BME280;35354;51.296;16.924;2023-02-04T06:00:20;100574.75;;;-0.59;95.78
49459;BME280;35354;51.296;16.924;2023-02-04T06:02:46;100594.53;;;-0.51;95.62
49459;BME280;35354;51.296;16.924;2023-02-04T06:05:11;100599.66;;;-0.47;95.82
49459;BME280;35354;51.296;16.924;2023-02-04T06:07:36;100571.16;;;-0.73;95.89
49459;BME280;35354;51.296;16.924;2023-02-04T06:10:02;100620.75;;;-0.65;95.90
49459;BME280;35354;51.296;16.924;2023-02-04T06:12:27;100648.38;;;-0.41;95.57
49459;BME280;35354;51.296;16.924;2023-02-04T06:14:52;100643.09;;;-0.54;95.54
49459;BME280;35354;51.296;16.924;2023-02-04T06:17:18;100644.56;;;-0.69;95.32
49459;BME280;35354;51.296;16.924;2023-02-04T06:19:43;100682.50;;;-0.41;95.27
49459;BME280;35354;51.296;16.924;2023-02-04T06:22:08;100686.72;;;-0.46;95.05
49459;BME280;35354;51.296;16.924;2023-02-04T06:24:34;100695.13;;;-0.52;94.83
49459;BME280;35354;51.296;16.924;2023-02-04T06:26:59;100696.00;;;-0.51;94.84
49459;BME280;35354;51.296;16.924;2023-02-04T06:29:24;100664.56;;;-0.97;95.55
49459;BME280;35354;51.296;16.924;2023-02-04T06:31:50;100693.09;;;-0.74;95.33
49459;BME280;35354;51.296;16.924;2023-02-04T06:34:15;100694.69;;;-0.81;94.87
49459;BME280;35354;51.296;16.924;2023-02-04T06:36:40;100734.28;;;-0.57;94.74
49459;BME280;35354;51.296;16.924;2023-02-04T06:39:06;100715.13;;;-0.82;94.34
49459;BME280;35354;51.296;16.924;2023-02-04T06:41:31;100731.59;;;-0.66;94.25
49459;BME280;35354;51.296;16.924;2023-02-04T06:43:57;100756.41;;;-0.59;94.09
49459;BME280;35354;51.296;16.924;2023-02-04T06:46:22;100759.88;;;-0.59;93.84
49459;BME280;35354;51.296;16.924;2023-02-04T06:48:47;100767.34;;;-0.69;93.79
49459;BME280;35354;51.296;16.924;2023-02-04T06:51:13;100753.59;;;-0.76;93.30
49459;BME280;35354;51.296;16.924;2023-02-04T06:53:38;100782.91;;;-0.59;93.69
49459;BME280;35354;51.296;16.924;2023-02-04T06:56:04;100779.44;;;-0.61;93.40
49459;BME280;35354;51.296;16.924;2023-02-04T06:58:30;100814.09;;;-0.28;93.78
49459;BME280;35354;51.296;16.924;2023-02-04T07:00:55;100805.56;;;-0.29;92.61
49459;BME280;35354;51.296;16.924;2023-02-04T07:03:20;100818.03;;;0.06;92.33
49459;BME280;35354;51.296;16.924;2023-02-04T07:05:45;100810.06;;;0.47;91.12
49459;BME280;35354;51.296;16.924;2023-02-04T07:08:11;100834.06;;;0.52;89.92
49459;BME280;35354;51.296;16.924;2023-02-04T07:10:36;100825.47;;;0.47;90.28
49459;BME280;35354;51.296;16.924;2023-02-04T07:13:01;100840.72;;;0.41;90.10
49459;BME280;35354;51.296;16.924;2023-02-04T07:15:27;100825.28;;;0.36;90.50
49459;BME280;35354;51.296;16.924;2023-02-04T07:17:52;100817.59;;;0.36;90.38
49459;BME280;35354;51.296;16.924;2023-02-04T07:20:18;100838.97;;;0.35;91.63
49459;BME280;35354;51.296;16.924;2023-02-04T07:22:43;100845.22;;;0.57;90.87
49459;BME280;35354;51.296;16.924;2023-02-04T07:25:09;100814.31;;;0.45;90.02
49459;BME280;35354;51.296;16.924;2023-02-04T07:27:34;100830.16;;;0.80;89.37
49459;BME280;35354;51.296;16.924;2023-02-04T07:30:00;100861.28;;;1.11;88.64
49459;BME280;35354;51.296;16.924;2023-02-04T07:32:25;100826.13;;;1.05;88.16
49459;BME280;35354;51.296;16.924;2023-02-04T07:34:52;100877.31;;;1.75;87.42
49459;BME280;35354;51.296;16.924;2023-02-04T07:37:17;100881.97;;;2.22;85.95
49459;BME280;35354;51.296;16.924;2023-02-04T07:39:44;100880.31;;;2.30;84.91
49459;BME280;35354;51.296;16.924;2023-02-04T07:42:10;100850.47;;;2.50;83.72
49459;BME280;35354;51.296;16.924;2023-02-04T07:44:35;100860.72;;;2.44;82.48
49459;BME280;35354;51.296;16.924;2023-02-04T07:47:01;100892.56;;;2.66;82.80
49459;BME280;35354;51.296;16.924;2023-02-04T07:49:26;100894.38;;;2.90;82.00
49459;BME280;35354;51.296;16.924;2023-02-04T07:51:52;100854.88;;;2.76;81.59
49459;BME280;35354;51.296;16.924;2023-02-04T07:54:18;100887.63;;;3.18;80.41
49459;BME280;35354;51.296;16.924;2023-02-04T07:56:43;100891.09;;;3.31;79.74
49459;BME280;35354;51.296;16.924;2023-02-04T07:59:08;100925.38;;;3.09;79.19
49459;BME280;35354;51.296;16.924;2023-02-04T08:01:34;100939.16;;;3.21;79.51
49459;BME280;35354;51.296;16.924;2023-02-04T08:03:59;100907.31;;;3.06;79.13
49459;BME280;35354;51.296;16.924;2023-02-04T08:06:25;100896.16;;;3.07;79.21
49459;BME280;35354;51.296;16.924;2023-02-04T08:08:50;100919.47;;;3.42;78.77
49459;BME280;35354;51.296;16.924;2023-02-04T08:11:15;100929.66;;;3.11;78.25
49459;BME280;35354;51.296;16.924;2023-02-04T08:13:40;100918.66;;;3.50;78.07
49459;BME280;35354;51.296;16.924;2023-02-04T08:16:06;100954.72;;;3.66;77.35
49459;BME280;35354;51.296;16.924;2023-02-04T08:18:31;100939.97;;;3.17;77.02
49459;BME280;35354;51.296;16.924;2023-02-04T08:20:56;100964.94;;;3.35;77.75
49459;BME280;35354;51.296;16.924;2023-02-04T08:23:23;100969.22;;;3.30;77.56
49459;BME280;35354;51.296;16.924;2023-02-04T08:25:48;100949.44;;;3.21;77.87
49459;BME280;35354;51.296;16.924;2023-02-04T08:28:14;100947.00;;;3.55;77.35
49459;BME280;35354;51.296;16.924;2023-02-04T08:30:39;100977.91;;;3.58;77.27
49459;BME280;35354;51.296;16.924;2023-02-04T08:33:04;100978.63;;;3.22;78.23
49459;BME280;35354;51.296;16.924;2023-02-04T08:35:30;100963.00;;;2.88;79.41
49459;BME280;35354;51.296;16.924;2023-02-04T08:37:55;100966.44;;;2.90;80.27
49459;BME280;35354;51.296;16.924;2023-02-04T08:40:20;100968.16;;;2.87;80.59
49459;BME280;35354;51.296;16.924;2023-02-04T08:42:46;100999.03;;;2.88;81.25
49459;BME280;35354;51.296;16.924;2023-02-04T08:45:11;100981.72;;;2.63;82.02
49459;BME280;35354;51.296;16.924;2023-02-04T08:47:36;100972.28;;;2.65;82.31
49459;BME280;35354;51.296;16.924;2023-02-04T08:50:01;100972.94;;;2.36;82.76
49459;BME280;35354;51.296;16.924;2023-02-04T08:52:27;101006.28;;;2.29;83.55
49459;BME280;35354;51.296;16.924;2023-02-04T08:54:52;101007.16;;;2.29;84.54
49459;BME280;35354;51.296;16.924;2023-02-04T08:57:18;100990.69;;;2.10;84.30
49459;BME280;35354;51.296;16.924;2023-02-04T08:59:43;101019.72;;;1.98;84.27
49459;BME280;35354;51.296;16.924;2023-02-04T09:02:10;101005.13;;;1.94;85.36
49459;BME280;35354;51.296;16.924;2023-02-04T09:04:35;100993.75;;;1.74;85.45
49459;BME280;35354;51.296;16.924;2023-02-04T09:07:00;101022.38;;;2.08;85.39
49459;BME280;35354;51.296;16.924;2023-02-04T09:09:26;100983.91;;;2.18;85.05
49459;BME280;35354;51.296;16.924;2023-02-04T09:11:51;101007.00;;;2.14;84.50
49459;BME280;35354;51.296;16.924;2023-02-04T09:14:16;100975.81;;;1.79;84.93
49459;BME280;35354;51.296;16.924;2023-02-04T09:16:42;101020.56;;;1.99;85.40
49459;BME280;35354;51.296;16.924;2023-02-04T09:19:07;101039.91;;;1.65;85.70
49459;BME280;35354;51.296;16.924;2023-02-04T09:21:35;101007.19;;;1.50;86.42
49459;BME280;35354;51.296;16.924;2023-02-04T09:24:00;101043.94;;;1.47;87.05
49459;BME280;35354;51.296;16.924;2023-02-04T09:26:25;101030.91;;;1.32;87.42
49459;BME280;35354;51.296;16.924;2023-02-04T09:28:50;101024.28;;;1.49;87.75
49459;BME280;35354;51.296;16.924;2023-02-04T09:31:16;101051.19;;;1.79;87.56
49459;BME280;35354;51.296;16.924;2023-02-04T09:33:41;101050.28;;;1.74;86.75
49459;BME280;35354;51.296;16.924;2023-02-04T09:36:07;101038.38;;;1.82;86.89
49459;BME280;35354;51.296;16.924;2023-02-04T09:38:32;101046.38;;;1.38;87.00
49459;BME280;35354;51.296;16.924;2023-02-04T09:41:07;101048.41;;;1.62;87.71
49459;BME280;35354;51.296;16.924;2023-02-04T09:43:38;101044.88;;;1.53;87.96
49459;BME280;35354;51.296;16.924;2023-02-04T09:46:06;101033.09;;;1.70;87.91
49459;BME280;35354;51.296;16.924;2023-02-04T09:48:32;101064.72;;;1.66;87.92
49459;BME280;35354;51.296;16.924;2023-02-04T09:51:03;101027.88;;;1.64;88.22
49459;BME280;35354;51.296;16.924;2023-02-04T09:53:30;101026.00;;;1.50;86.81
49459;BME280;35354;51.296;16.924;2023-02-04T09:55:56;101020.16;;;1.61;87.37
49459;BME280;35354;51.296;16.924;2023-02-04T09:58:22;101048.38;;;1.59;87.32
49459;BME280;35354;51.296;16.924;2023-02-04T10:01:18;101069.13;;;1.76;86.54
49459;BME280;35354;51.296;16.924;2023-02-04T10:03:45;101059.94;;;1.98;86.90
49459;BME280;35354;51.296;16.924;2023-02-04T10:06:16;101066.72;;;1.91;86.33
49459;BME280;35354;51.296;16.924;2023-02-04T10:08:43;101060.69;;;1.88;86.32
49459;BME280;35354;51.296;16.924;2023-02-04T10:11:09;101091.56;;;1.92;86.72
49459;BME280;35354;51.296;16.924;2023-02-04T10:13:37;101054.41;;;1.63;86.03
49459;BME280;35354;51.296;16.924;2023-02-04T10:16:14;101071.94;;;1.96;86.51
49459;BME280;35354;51.296;16.924;2023-02-04T10:18:41;101053.69;;;1.76;86.25
49459;BME280;35354;51.296;16.924;2023-02-04T10:21:20;101082.28;;;2.04;86.25
49459;BME280;35354;51.296;16.924;2023-02-04T10:23:48;101073.09;;;2.27;85.66
49459;BME280;35354;51.296;16.924;2023-02-04T10:26:14;101067.78;;;2.09;84.37
49459;BME280;35354;51.296;16.924;2023-02-04T10:28:47;101066.97;;;2.13;85.36
49459;BME280;35354;51.296;16.924;2023-02-04T10:31:47;101074.69;;;2.11;84.86
49459;BME280;35354;51.296;16.924;2023-02-04T10:36:48;101077.47;;;2.33;84.03
49459;BME280;35354;51.296;16.924;2023-02-04T10:39:23;101087.81;;;2.40;83.74
49459;BME280;35354;51.296;16.924;2023-02-04T10:41:50;101087.69;;;2.28;82.70
49459;BME280;35354;51.296;16.924;2023-02-04T10:44:28;101094.72;;;2.44;82.99
49459;BME280;35354;51.296;16.924;2023-02-04T10:47:22;101098.97;;;2.44;82.74
49459;BME280;35354;51.296;16.924;2023-02-04T10:52:21;101103.56;;;1.90;82.08
49459;BME280;35354;51.296;16.924;2023-02-04T10:54:48;101113.84;;;1.93;82.43
49459;BME280;35354;51.296;16.924;2023-02-04T10:57:20;101121.59;;;1.98;82.27
49459;BME280;35354;51.296;16.924;2023-02-04T10:59:49;101098.22;;;1.73;80.83
49459;BME280;35354;51.296;16.924;2023-02-04T11:04:59;101131.97;;;2.04;81.47
49459;BME280;35354;51.296;16.924;2023-02-04T11:07:24;101135.38;;;2.02;81.54
49459;BME280;35354;51.296;16.924;2023-02-04T11:09:50;101108.75;;;1.96;80.51
49459;BME280;35354;51.296;16.924;2023-02-04T11:12:34;101113.13;;;2.05;78.89
49459;BME280;35354;51.296;16.924;2023-02-04T11:15:00;101129.59;;;2.22;77.33
49459;BME280;35354;51.296;16.924;2023-02-04T11:17:31;101139.38;;;2.54;76.71
49459;BME280;35354;51.296;16.924;2023-02-04T11:19:57;101144.88;;;2.09;73.49
49459;BME280;35354;51.296;16.924;2023-02-04T11:22:40;101155.16;;;2.07;73.88
49459;BME280;35354;51.296;16.924;2023-02-04T11:25:30;101147.09;;;1.81;74.25
49459;BME280;35354;51.296;16.924;2023-02-04T11:27:56;101112.63;;;1.64;75.35
49459;BME280;35354;51.296;16.924;2023-02-04T11:30:21;101156.56;;;1.84;75.24
49459;BME280;35354;51.296;16.924;2023-02-04T11:33:21;101169.81;;;2.16;75.88
49459;BME280;35354;51.296;16.924;2023-02-04T11:36:06;101158.50;;;2.02;74.60
49459;BME280;35354;51.296;16.924;2023-02-04T11:38:33;101158.25;;;1.82;74.52
49459;BME280;35354;51.296;16.924;2023-02-04T11:40:59;101161.69;;;1.82;74.88
49459;BME280;35354;51.296;16.924;2023-02-04T11:43:25;101144.63;;;1.86;75.89
49459;BME280;35354;51.296;16.924;2023-02-04T11:46:25;101175.63;;;1.99;75.69
49459;BME280;35354;51.296;16.924;2023-02-04T11:48:55;101163.28;;;1.75;75.22
49459;BME280;35354;51.296;16.924;2023-02-04T11:51:27;101162.44;;;1.77;74.31
49459;BME280;35354;51.296;16.924;2023-02-04T11:53:54;101157.75;;;1.46;74.99
49459;BME280;35354;51.296;16.924;2023-02-04T11:56:20;101161.34;;;1.59;75.62
49459;BME280;35354;51.296;16.924;2023-02-04T11:58:47;101187.72;;;1.47;74.05
49459;BME280;35354;51.296;16.924;2023-02-04T12:01:17;101184.28;;;1.47;73.55
49459;BME280;35354;51.296;16.924;2023-02-04T12:03:47;101188.75;;;1.59;74.31
49459;BME280;35354;51.296;16.924;2023-02-04T12:06:23;101167.28;;;1.54;73.91
49459;BME280;35354;51.296;16.924;2023-02-04T12:08:49;101169.84;;;1.55;73.61
49459;BME280;35354;51.296;16.924;2023-02-04T12:11:25;101196.00;;;1.87;73.92
49459;BME280;35354;51.296;16.924;2023-02-04T12:13:56;101192.59;;;1.88;73.21
49459;BME280;35354;51.296;16.924;2023-02-04T12:16:23;101185.84;;;1.95;73.34
49459;BME280;35354;51.296;16.924;2023-02-04T12:18:49;101193.78;;;2.15;73.59
49459;BME280;35354;51.296;16.924;2023-02-04T12:21:15;101191.00;;;1.98;73.98
49459;BME280;35354;51.296;16.924;2023-02-04T12:23:41;101186.88;;;2.09;73.57
49459;BME280;35354;51.296;16.924;2023-02-04T12:26:07;101180.88;;;2.10;73.47
49459;BME280;35354;51.296;16.924;2023-02-04T12:28:33;101189.16;;;1.89;72.27
49459;BME280;35354;51.296;16.924;2023-02-04T12:30:59;101201.03;;;1.81;71.43
49459;BME280;35354;51.296;16.924;2023-02-04T12:33:25;101183.06;;;1.80;71.87
49459;BME280;35354;51.296;16.924;2023-02-04T12:35:51;101175.06;;;1.60;71.82
49459;BME280;35354;51.296;16.924;2023-02-04T12:38:17;101189.28;;;1.38;71.75
49459;BME280;35354;51.296;16.924;2023-02-04T12:40:42;101208.56;;;1.67;73.01
49459;BME280;35354;51.296;16.924;2023-02-04T12:43:08;101149.19;;;1.44;73.35
49459;BME280;35354;51.296;16.924;2023-02-04T12:45:34;101201.63;;;1.60;72.34
49459;BME280;35354;51.296;16.924;2023-02-04T12:47:59;101181.66;;;1.42;71.71
49459;BME280;35354;51.296;16.924;2023-02-04T12:50:25;101193.94;;;1.62;72.86
49459;BME280;35354;51.296;16.924;2023-02-04T12:52:56;101190.38;;;1.52;71.42